createdAt,value
2019-01-31T00:01:03.426Z,0.00
2019-01-31T00:01:54.568Z,0.00
2019-01-31T00:02:54.583Z,0.00
2019-01-31T00:03:54.584Z,0.00
2019-01-31T00:04:54.556Z,0.00
2019-01-31T00:05:54.603Z,0.00
2019-01-31T00:06:54.546Z,0.00
2019-01-31T00:07:54.505Z,0.00
2019-01-31T00:08:54.496Z,0.00
2019-01-31T00:09:54.531Z,0.00
2019-01-31T00:10:54.471Z,0.00
2019-01-31T00:11:54.466Z,0.00
2019-01-31T00:12:54.463Z,0.00
2019-01-31T00:13:54.473Z,0.00
2019-01-31T00:14:54.428Z,0.00
2019-01-31T00:15:54.459Z,0.00
2019-01-31T00:17:02.031Z,0.00
2019-01-31T00:17:54.410Z,0.00
2019-01-31T00:18:54.421Z,0.00
2019-01-31T00:19:54.416Z,0.00
2019-01-31T00:20:54.374Z,0.00
2019-01-31T00:21:54.396Z,0.00
2019-01-31T00:22:54.402Z,0.00
2019-01-31T00:23:54.335Z,0.00
2019-01-31T00:24:54.377Z,0.00
2019-01-31T00:25:54.308Z,0.00
2019-01-31T00:26:54.340Z,0.00
2019-01-31T00:27:54.298Z,0.00
2019-01-31T00:28:54.306Z,0.00
2019-01-31T00:29:54.263Z,0.00
2019-01-31T00:30:54.257Z,0.00
2019-01-31T00:31:54.246Z,0.00
2019-01-31T00:32:54.255Z,0.00
2019-01-31T00:33:54.258Z,0.00
2019-01-31T00:34:54.283Z,0.00
2019-01-31T00:35:54.218Z,0.00
2019-01-31T00:36:54.189Z,0.00
2019-01-31T00:37:54.205Z,0.00
2019-01-31T00:38:56.946Z,0.00
2019-01-31T00:39:54.164Z,0.00
2019-01-31T00:40:54.146Z,0.00
2019-01-31T00:41:54.137Z,0.00
2019-01-31T00:42:54.193Z,0.00
2019-01-31T00:43:54.179Z,0.00
2019-01-31T00:44:54.107Z,0.00
2019-01-31T00:45:54.092Z,0.00
2019-01-31T00:46:54.086Z,0.00
2019-01-31T00:47:54.102Z,0.00
2019-01-31T00:48:54.102Z,0.00
2019-01-31T00:49:54.056Z,0.00
2019-01-31T00:50:54.051Z,0.00
2019-01-31T00:51:54.037Z,0.00
2019-01-31T00:52:54.030Z,0.00
2019-01-31T00:53:54.039Z,0.00
2019-01-31T00:54:54.028Z,0.00
2019-01-31T00:55:53.999Z,0.00
2019-01-31T00:56:53.980Z,0.00
2019-01-31T00:57:53.967Z,0.00
2019-01-31T00:58:53.958Z,0.00
2019-01-31T00:59:53.954Z,0.00
2019-01-31T01:00:53.952Z,0.00
2019-01-31T01:01:53.930Z,0.00
2019-01-31T01:02:53.920Z,0.00
2019-01-31T01:03:53.914Z,0.00
2019-01-31T01:04:53.899Z,0.00
2019-01-31T01:05:53.911Z,0.00
2019-01-31T01:06:53.870Z,0.00
2019-01-31T01:07:53.866Z,0.00
2019-01-31T01:08:53.860Z,0.00
2019-01-31T01:09:53.848Z,0.00
2019-01-31T01:10:53.856Z,0.00
2019-01-31T01:11:53.829Z,0.00
2019-01-31T01:12:53.810Z,0.00
2019-01-31T01:13:53.804Z,0.00
2019-01-31T01:14:53.795Z,0.00
2019-01-31T01:15:53.801Z,0.00
2019-01-31T01:16:53.783Z,0.00
2019-01-31T01:17:53.766Z,0.00
2019-01-31T01:18:53.749Z,0.00
2019-01-31T01:19:53.733Z,0.00
2019-01-31T01:20:53.734Z,0.00
2019-01-31T01:21:53.738Z,0.00
2019-01-31T01:22:53.704Z,0.00
2019-01-31T01:23:53.693Z,0.00
2019-01-31T01:24:53.681Z,0.00
2019-01-31T01:25:53.683Z,0.00
2019-01-31T01:26:53.661Z,0.00
2019-01-31T01:27:53.694Z,0.00
2019-01-31T01:29:01.275Z,0.00
2019-01-31T01:29:53.659Z,0.00
2019-01-31T01:30:53.641Z,0.00
2019-01-31T01:31:53.689Z,0.00
2019-01-31T01:32:53.609Z,0.00
2019-01-31T01:33:53.643Z,0.00
2019-01-31T01:35:01.182Z,0.00
2019-01-31T01:35:54.608Z,0.00
2019-01-31T01:36:53.667Z,0.00
2019-01-31T01:37:53.558Z,0.00
2019-01-31T01:38:53.541Z,0.00
2019-01-31T01:39:53.561Z,0.00
2019-01-31T01:40:53.582Z,0.00
2019-01-31T01:41:53.527Z,0.00
2019-01-31T01:42:53.496Z,0.00
2019-01-31T01:43:53.486Z,0.00
2019-01-31T01:44:53.511Z,0.00
2019-01-31T01:45:53.465Z,0.00
2019-01-31T01:46:53.458Z,0.00
2019-01-31T01:47:53.437Z,0.00
2019-01-31T01:48:53.433Z,0.00
2019-01-31T01:49:53.421Z,0.00
2019-01-31T01:50:53.426Z,0.00
2019-01-31T01:51:53.402Z,0.00
2019-01-31T01:52:53.397Z,0.00
2019-01-31T01:53:53.379Z,0.00
2019-01-31T01:54:53.428Z,0.00
2019-01-31T01:55:53.408Z,0.00
2019-01-31T01:56:53.355Z,0.00
2019-01-31T01:57:53.333Z,0.00
2019-01-31T01:58:53.322Z,0.00
2019-01-31T01:59:53.339Z,0.00
2019-01-31T02:00:53.299Z,0.00
2019-01-31T02:01:53.310Z,0.00
2019-01-31T02:02:53.280Z,0.00
2019-01-31T02:03:53.303Z,0.00
2019-01-31T02:04:53.294Z,0.00
2019-01-31T02:05:53.248Z,0.00
2019-01-31T02:06:53.264Z,0.00
2019-01-31T02:07:53.232Z,0.00
2019-01-31T02:08:53.223Z,0.00
2019-01-31T02:09:53.208Z,0.00
2019-01-31T02:10:53.193Z,0.00
2019-01-31T02:11:53.207Z,0.00
2019-01-31T02:12:53.174Z,0.00
2019-01-31T02:13:53.164Z,0.00
2019-01-31T02:14:53.163Z,0.00
2019-01-31T02:15:53.140Z,0.00
2019-01-31T02:16:53.133Z,0.00
2019-01-31T02:17:53.148Z,0.00
2019-01-31T02:18:53.105Z,0.00
2019-01-31T02:19:53.099Z,0.00
2019-01-31T02:20:53.090Z,0.00
2019-01-31T02:21:53.110Z,0.00
2019-01-31T02:22:53.111Z,0.00
2019-01-31T02:23:53.078Z,0.00
2019-01-31T02:24:53.043Z,0.00
2019-01-31T02:25:53.038Z,0.00
2019-01-31T02:26:53.027Z,0.00
2019-01-31T02:27:53.155Z,0.00
2019-01-31T02:28:53.011Z,0.00
2019-01-31T02:29:53.009Z,0.00
2019-01-31T02:30:52.981Z,0.00
2019-01-31T02:31:52.982Z,0.00
2019-01-31T02:32:52.960Z,0.00
2019-01-31T02:33:52.955Z,0.00
2019-01-31T02:34:52.958Z,0.00
2019-01-31T02:35:52.930Z,0.00
2019-01-31T02:36:52.928Z,0.00
2019-01-31T02:37:52.908Z,0.00
2019-01-31T02:38:52.893Z,0.00
2019-01-31T02:39:52.908Z,0.00
2019-01-31T02:40:52.876Z,0.00
2019-01-31T02:41:52.872Z,0.00
2019-01-31T02:42:52.852Z,0.00
2019-01-31T02:43:52.888Z,0.00
2019-01-31T02:44:52.835Z,0.00
2019-01-31T02:45:52.858Z,0.00
2019-01-31T02:46:52.811Z,0.00
2019-01-31T02:47:52.802Z,0.00
2019-01-31T02:48:52.797Z,0.00
2019-01-31T02:49:52.789Z,0.00
2019-01-31T02:50:52.769Z,0.00
2019-01-31T02:51:52.781Z,0.00
2019-01-31T02:52:52.771Z,0.00
2019-01-31T02:53:52.732Z,0.00
2019-01-31T02:54:52.721Z,0.00
2019-01-31T02:55:52.714Z,0.00
2019-01-31T02:56:52.739Z,0.00
2019-01-31T02:57:52.701Z,0.00
2019-01-31T02:58:52.680Z,0.00
2019-01-31T02:59:52.668Z,0.00
2019-01-31T03:00:52.662Z,0.00
2019-01-31T03:01:52.651Z,0.00
2019-01-31T03:02:52.654Z,0.00
2019-01-31T03:03:52.633Z,0.00
2019-01-31T03:04:52.679Z,0.00
2019-01-31T03:05:52.649Z,0.00
2019-01-31T03:06:52.595Z,0.00
2019-01-31T03:07:52.728Z,0.00
2019-01-31T03:08:52.572Z,0.00
2019-01-31T03:09:54.831Z,0.00
2019-01-31T03:10:52.553Z,0.00
2019-01-31T03:11:52.553Z,0.00
2019-01-31T03:12:52.584Z,0.00
2019-01-31T03:13:52.553Z,0.00
2019-01-31T03:14:52.515Z,0.00
2019-01-31T03:15:52.505Z,0.00
2019-01-31T03:16:52.487Z,0.00
2019-01-31T03:17:52.474Z,0.00
2019-01-31T03:18:52.499Z,0.00
2019-01-31T03:19:52.460Z,0.00
2019-01-31T03:20:52.449Z,0.00
2019-01-31T03:21:52.447Z,0.00
2019-01-31T03:22:52.450Z,0.00
2019-01-31T03:23:52.440Z,0.00
2019-01-31T03:24:52.424Z,0.00
2019-01-31T03:25:52.448Z,0.00
2019-01-31T03:26:52.393Z,0.00
2019-01-31T03:27:52.381Z,0.00
2019-01-31T03:28:52.401Z,0.00
2019-01-31T03:29:52.374Z,0.00
2019-01-31T03:30:52.362Z,0.00
2019-01-31T03:31:52.365Z,0.00
2019-01-31T03:32:52.328Z,0.00
2019-01-31T03:33:52.319Z,0.00
2019-01-31T03:34:52.320Z,0.00
2019-01-31T03:35:52.322Z,0.00
2019-01-31T03:36:52.308Z,0.00
2019-01-31T03:37:52.263Z,0.00
2019-01-31T03:38:52.254Z,0.00
2019-01-31T03:39:52.268Z,0.00
2019-01-31T03:40:52.246Z,0.00
2019-01-31T03:41:52.226Z,0.00
2019-01-31T03:42:52.240Z,0.00
2019-01-31T03:43:52.205Z,0.00
2019-01-31T03:44:52.200Z,0.00
2019-01-31T03:45:52.240Z,0.00
2019-01-31T03:46:52.171Z,0.00
2019-01-31T03:47:52.180Z,0.00
2019-01-31T03:48:52.182Z,0.00
2019-01-31T03:49:52.136Z,0.00
2019-01-31T03:50:52.182Z,0.00
2019-01-31T03:51:52.141Z,0.00
2019-01-31T03:52:52.135Z,0.00
2019-01-31T03:53:52.092Z,0.00
2019-01-31T03:54:52.138Z,0.00
2019-01-31T03:55:52.077Z,0.00
2019-01-31T03:56:52.119Z,0.00
2019-01-31T03:57:52.082Z,0.00
2019-01-31T03:58:52.056Z,0.00
2019-01-31T03:59:52.032Z,0.00
2019-01-31T04:00:52.026Z,0.00
2019-01-31T04:01:52.065Z,0.00
2019-01-31T04:02:52.071Z,0.00
2019-01-31T04:03:51.996Z,0.00
2019-01-31T04:04:52.008Z,0.00
2019-01-31T04:05:51.973Z,0.00
2019-01-31T04:06:51.975Z,0.00
2019-01-31T04:07:51.950Z,0.00
2019-01-31T04:08:51.962Z,0.00
2019-01-31T04:09:51.972Z,0.00
2019-01-31T04:10:51.921Z,0.00
2019-01-31T04:11:51.940Z,0.00
2019-01-31T04:12:51.910Z,0.00
2019-01-31T04:13:51.891Z,0.00
2019-01-31T04:14:51.886Z,0.00
2019-01-31T04:15:51.861Z,0.00
2019-01-31T04:16:51.885Z,0.00
2019-01-31T04:17:51.872Z,0.00
2019-01-31T04:18:51.837Z,0.00
2019-01-31T04:19:51.825Z,0.00
2019-01-31T04:20:51.947Z,0.00
2019-01-31T04:21:51.807Z,0.00
2019-01-31T04:22:51.811Z,0.00
2019-01-31T04:23:51.775Z,0.00
2019-01-31T04:24:51.779Z,0.00
2019-01-31T04:25:51.792Z,0.00
2019-01-31T04:26:51.796Z,0.00
2019-01-31T04:27:51.739Z,0.00
2019-01-31T04:28:51.764Z,0.00
2019-01-31T04:29:51.724Z,0.00
2019-01-31T04:30:51.719Z,0.00
2019-01-31T04:31:51.702Z,0.00
2019-01-31T04:32:51.746Z,0.00
2019-01-31T04:33:51.701Z,0.00
2019-01-31T04:34:51.666Z,0.00
2019-01-31T04:35:51.662Z,0.00
2019-01-31T04:36:51.652Z,0.00
2019-01-31T04:37:51.640Z,0.00
2019-01-31T04:38:51.656Z,0.00
2019-01-31T04:39:51.615Z,0.00
2019-01-31T04:40:51.605Z,0.00
2019-01-31T04:41:51.603Z,0.00
2019-01-31T04:42:51.581Z,0.00
2019-01-31T04:43:51.598Z,0.00
2019-01-31T04:44:51.616Z,0.00
2019-01-31T04:45:51.553Z,0.00
2019-01-31T04:46:51.545Z,0.00
2019-01-31T04:47:51.531Z,0.00
2019-01-31T04:48:51.648Z,0.00
2019-01-31T04:49:51.515Z,0.00
2019-01-31T04:50:51.510Z,0.00
2019-01-31T04:51:51.501Z,0.00
2019-01-31T04:52:51.504Z,0.00
2019-01-31T04:53:51.483Z,0.00
2019-01-31T04:54:51.510Z,0.00
2019-01-31T04:55:51.446Z,0.00
2019-01-31T04:56:51.436Z,0.00
2019-01-31T04:57:51.432Z,0.00
2019-01-31T04:58:51.433Z,0.00
2019-01-31T04:59:51.471Z,0.00
2019-01-31T05:00:51.388Z,0.00
2019-01-31T05:01:51.415Z,0.00
2019-01-31T05:02:51.375Z,0.00
2019-01-31T05:03:51.363Z,0.00
2019-01-31T05:04:51.360Z,0.00
2019-01-31T05:05:51.367Z,0.00
2019-01-31T05:06:51.356Z,0.00
2019-01-31T05:07:51.319Z,0.00
2019-01-31T05:08:51.370Z,0.00
2019-01-31T05:09:51.300Z,0.00
2019-01-31T05:10:51.331Z,0.00
2019-01-31T05:11:51.277Z,0.00
2019-01-31T05:12:51.266Z,0.00
2019-01-31T05:13:51.306Z,0.00
2019-01-31T05:14:51.256Z,0.00
2019-01-31T05:15:51.258Z,0.00
2019-01-31T05:16:51.272Z,0.00
2019-01-31T05:17:51.214Z,0.00
2019-01-31T05:18:51.203Z,0.00
2019-01-31T05:19:51.197Z,0.00
2019-01-31T05:20:51.209Z,0.00
2019-01-31T05:21:51.178Z,0.00
2019-01-31T05:22:51.192Z,0.00
2019-01-31T05:23:51.174Z,0.00
2019-01-31T05:24:51.153Z,0.00
2019-01-31T05:25:51.132Z,0.00
2019-01-31T05:26:51.137Z,0.00
2019-01-31T05:27:51.107Z,0.00
2019-01-31T05:28:51.149Z,0.00
2019-01-31T05:29:51.085Z,0.00
2019-01-31T05:30:51.077Z,0.00
2019-01-31T05:31:51.111Z,0.00
2019-01-31T05:32:51.059Z,0.00
2019-01-31T05:33:51.050Z,0.00
2019-01-31T05:34:51.062Z,0.00
2019-01-31T05:35:51.024Z,0.00
2019-01-31T05:36:51.014Z,0.00
2019-01-31T05:37:51.075Z,0.00
2019-01-31T05:38:51.065Z,0.00
2019-01-31T05:39:51.040Z,0.00
2019-01-31T05:40:55.568Z,0.00
2019-01-31T05:41:52.003Z,0.00
2019-01-31T05:42:50.993Z,0.00
2019-01-31T05:43:50.945Z,0.00
2019-01-31T05:44:50.929Z,0.00
2019-01-31T05:45:50.922Z,0.00
2019-01-31T05:46:50.903Z,0.00
2019-01-31T05:47:50.900Z,0.00
2019-01-31T05:48:59.495Z,0.00
2019-01-31T05:49:50.918Z,0.00
2019-01-31T05:50:51.028Z,0.00
2019-01-31T05:51:50.857Z,0.00
2019-01-31T05:52:50.844Z,0.00
2019-01-31T05:53:50.852Z,0.00
2019-01-31T05:54:50.830Z,0.00
2019-01-31T05:55:50.813Z,0.00
2019-01-31T05:56:50.814Z,0.00
2019-01-31T05:57:50.831Z,0.00
2019-01-31T05:58:50.775Z,0.00
2019-01-31T05:59:50.767Z,0.00
2019-01-31T06:00:50.756Z,0.00
2019-01-31T06:01:50.751Z,0.00
2019-01-31T06:02:50.747Z,0.00
2019-01-31T06:03:50.773Z,0.00
2019-01-31T06:04:53.753Z,0.00
2019-01-31T06:05:50.713Z,0.00
2019-01-31T06:06:50.693Z,0.00
2019-01-31T06:07:50.695Z,0.00
2019-01-31T06:08:50.692Z,0.00
2019-01-31T06:09:50.827Z,0.00
2019-01-31T06:10:50.648Z,0.00
2019-01-31T06:11:50.645Z,0.00
2019-01-31T06:12:50.635Z,0.00
2019-01-31T06:13:50.662Z,0.00
2019-01-31T06:14:50.611Z,0.00
2019-01-31T06:15:50.598Z,0.00
2019-01-31T06:16:50.589Z,0.00
2019-01-31T06:17:58.132Z,0.00
2019-01-31T06:18:50.604Z,0.00
2019-01-31T06:19:50.586Z,0.00
2019-01-31T06:20:50.570Z,0.00
2019-01-31T06:21:50.553Z,0.00
2019-01-31T06:22:50.599Z,0.00
2019-01-31T06:23:50.515Z,0.00
2019-01-31T06:24:50.524Z,0.00
2019-01-31T06:25:50.507Z,0.00
2019-01-31T06:26:50.483Z,0.00
2019-01-31T06:27:50.513Z,0.00
2019-01-31T06:28:50.469Z,0.00
2019-01-31T06:29:50.470Z,0.00
2019-01-31T06:30:50.444Z,0.00
2019-01-31T06:31:50.428Z,0.00
2019-01-31T06:32:50.470Z,0.00
2019-01-31T06:33:50.404Z,0.00
2019-01-31T06:34:50.474Z,0.00
2019-01-31T06:35:50.400Z,0.00
2019-01-31T06:36:50.396Z,0.00
2019-01-31T06:37:50.367Z,0.00
2019-01-31T06:38:50.373Z,0.00
2019-01-31T06:39:50.405Z,0.00
2019-01-31T06:40:50.395Z,0.00
2019-01-31T06:41:50.320Z,0.00
2019-01-31T06:42:50.336Z,0.00
2019-01-31T06:43:50.327Z,0.00
2019-01-31T06:44:50.317Z,0.00
2019-01-31T06:45:50.352Z,0.00
2019-01-31T06:46:50.267Z,0.00
2019-01-31T06:47:50.261Z,0.00
2019-01-31T06:48:50.250Z,0.00
2019-01-31T06:49:50.269Z,0.00
2019-01-31T06:50:50.247Z,0.00
2019-01-31T06:51:50.214Z,0.00
2019-01-31T06:52:50.328Z,0.00
2019-01-31T06:53:50.194Z,0.00
2019-01-31T06:54:50.186Z,0.00
2019-01-31T06:55:50.207Z,0.00
2019-01-31T06:56:50.194Z,0.00
2019-01-31T06:57:50.148Z,0.00
2019-01-31T06:58:50.147Z,0.00
2019-01-31T06:59:50.133Z,0.00
2019-01-31T07:00:50.117Z,0.00
2019-01-31T07:01:50.136Z,0.00
2019-01-31T07:02:50.122Z,0.00
2019-01-31T07:03:50.090Z,0.00
2019-01-31T07:04:50.079Z,0.00
2019-01-31T07:05:50.095Z,0.00
2019-01-31T07:06:50.115Z,0.00
2019-01-31T07:07:50.062Z,0.00
2019-01-31T07:08:50.199Z,0.00
2019-01-31T07:09:50.022Z,0.00
2019-01-31T07:10:50.023Z,0.00
2019-01-31T07:11:50.041Z,0.00
2019-01-31T07:12:50.007Z,0.00
2019-01-31T07:13:50.002Z,0.00
2019-01-31T07:14:50.007Z,0.00
2019-01-31T07:15:49.958Z,0.00
2019-01-31T07:16:49.951Z,0.00
2019-01-31T07:17:49.968Z,0.00
2019-01-31T07:18:49.939Z,0.00
2019-01-31T07:19:49.933Z,0.00
2019-01-31T07:20:49.919Z,0.00
2019-01-31T07:21:49.896Z,0.00
2019-01-31T07:22:49.914Z,0.00
2019-01-31T07:23:49.910Z,0.00
2019-01-31T07:24:49.874Z,0.00
2019-01-31T07:25:49.873Z,0.00
2019-01-31T07:26:49.883Z,0.00
2019-01-31T07:27:49.859Z,0.00
2019-01-31T07:28:49.818Z,0.00
2019-01-31T07:29:49.819Z,0.00
2019-01-31T07:30:49.842Z,0.00
2019-01-31T07:31:49.820Z,0.00
2019-01-31T07:32:49.837Z,0.00
2019-01-31T07:33:49.784Z,0.00
2019-01-31T07:34:49.757Z,0.00
2019-01-31T07:35:52.111Z,0.00
2019-01-31T07:36:49.747Z,0.00
2019-01-31T07:37:49.820Z,0.00
2019-01-31T07:38:49.759Z,0.00
2019-01-31T07:39:49.711Z,0.00
2019-01-31T07:40:49.700Z,0.00
2019-01-31T07:41:49.718Z,0.00
2019-01-31T07:42:49.698Z,5.62
2019-01-31T07:43:49.698Z,5.62
2019-01-31T07:44:49.651Z,5.62
2019-01-31T07:45:49.671Z,5.62
2019-01-31T07:46:49.635Z,5.62
2019-01-31T07:47:49.678Z,5.62
2019-01-31T07:48:49.638Z,5.62
2019-01-31T07:49:49.613Z,5.62
2019-01-31T07:50:49.595Z,5.62
2019-01-31T07:51:49.587Z,5.62
2019-01-31T07:52:49.573Z,5.62
2019-01-31T07:53:49.604Z,5.62
2019-01-31T07:54:49.562Z,5.62
2019-01-31T07:55:49.572Z,5.62
2019-01-31T07:56:49.537Z,5.62
2019-01-31T07:57:49.514Z,5.62
2019-01-31T07:58:49.518Z,5.62
2019-01-31T07:59:49.532Z,5.62
2019-01-31T08:00:49.494Z,5.62
2019-01-31T08:01:49.493Z,5.62
2019-01-31T08:02:49.467Z,5.62
2019-01-31T08:03:49.453Z,5.62
2019-01-31T08:04:49.459Z,5.62
2019-01-31T08:05:49.519Z,5.62
2019-01-31T08:06:49.425Z,5.62
2019-01-31T08:07:49.431Z,5.62
2019-01-31T08:08:49.445Z,5.62
2019-01-31T08:09:49.447Z,5.62
2019-01-31T08:10:49.787Z,11.25
2019-01-31T08:13:18.704Z,11.25
2019-01-31T08:14:18.523Z,11.25
2019-01-31T08:15:18.384Z,11.25
2019-01-31T08:16:27.847Z,11.25
2019-01-31T08:17:18.332Z,11.25
2019-01-31T08:18:20.064Z,11.25
2019-01-31T08:22:02.100Z,11.25
2019-01-31T08:23:02.054Z,11.25
2019-01-31T08:24:02.095Z,11.25
2019-01-31T08:25:02.033Z,11.25
2019-01-31T08:26:02.344Z,11.25
2019-01-31T08:27:02.010Z,11.25
2019-01-31T08:28:02.003Z,11.25
2019-01-31T08:29:02.169Z,11.25
2019-01-31T08:30:02.087Z,11.25
2019-01-31T08:31:10.826Z,11.25
2019-01-31T08:32:09.559Z,11.25
2019-01-31T08:33:01.977Z,11.25
2019-01-31T08:34:01.973Z,11.25
2019-01-31T08:35:01.932Z,11.25
2019-01-31T08:36:02.196Z,11.25
2019-01-31T08:37:01.909Z,11.25
2019-01-31T08:38:01.895Z,11.25
2019-01-31T08:39:01.885Z,11.25
2019-01-31T08:40:01.890Z,11.25
2019-01-31T08:41:01.955Z,11.25
2019-01-31T08:42:03.831Z,16.88
2019-01-31T08:43:01.849Z,16.88
2019-01-31T08:44:01.834Z,16.88
2019-01-31T08:45:01.821Z,16.88
2019-01-31T08:46:01.957Z,16.88
2019-01-31T08:47:01.802Z,16.88
2019-01-31T08:48:01.796Z,16.88
2019-01-31T08:49:01.778Z,22.50
2019-01-31T08:50:01.774Z,22.50
2019-01-31T08:51:01.756Z,22.50
2019-01-31T08:52:01.787Z,22.50
2019-01-31T08:53:01.740Z,22.50
2019-01-31T08:54:01.741Z,22.50
2019-01-31T08:55:01.725Z,22.50
2019-01-31T08:56:01.747Z,28.12
2019-01-31T08:57:01.692Z,28.12
2019-01-31T08:58:01.707Z,28.12
2019-01-31T08:59:01.670Z,33.75
2019-01-31T09:00:01.661Z,33.75
2019-01-31T09:01:01.727Z,33.75
2019-01-31T09:02:01.642Z,33.75
2019-01-31T09:04:30.354Z,33.75
2019-01-31T09:05:30.403Z,33.75
2019-01-31T09:06:30.312Z,33.75
2019-01-31T09:07:30.312Z,33.75
2019-01-31T09:08:30.324Z,28.12
2019-01-31T09:09:30.290Z,28.12
2019-01-31T09:10:37.835Z,28.12
2019-01-31T09:11:30.259Z,28.12
2019-01-31T09:12:30.247Z,28.12
2019-01-31T09:13:30.266Z,22.50
2019-01-31T09:14:30.231Z,22.50
2019-01-31T09:15:30.215Z,22.50
2019-01-31T09:16:30.245Z,22.50
2019-01-31T09:17:30.195Z,28.12
2019-01-31T09:18:30.215Z,28.12
2019-01-31T09:19:40.633Z,28.12
2019-01-31T09:20:37.739Z,28.12
2019-01-31T09:21:37.728Z,28.12
2019-01-31T09:22:37.696Z,28.12
2019-01-31T09:23:30.133Z,28.12
2019-01-31T09:24:37.749Z,28.12
2019-01-31T09:25:37.665Z,33.75
2019-01-31T09:26:30.104Z,33.75
2019-01-31T09:27:37.632Z,33.75
2019-01-31T09:28:30.078Z,39.38
2019-01-31T09:29:30.104Z,39.38
2019-01-31T09:30:30.066Z,39.38
2019-01-31T09:31:30.070Z,39.38
2019-01-31T09:32:30.037Z,39.38
2019-01-31T09:33:30.095Z,45.00
2019-01-31T09:34:30.067Z,45.00
2019-01-31T09:35:30.032Z,45.00
2019-01-31T09:36:29.995Z,45.00
2019-01-31T09:37:29.999Z,45.00
2019-01-31T09:38:29.978Z,39.38
2019-01-31T09:39:30.021Z,45.00
2019-01-31T09:40:30.006Z,45.00
2019-01-31T09:41:29.954Z,45.00
2019-01-31T09:42:29.932Z,45.00
2019-01-31T09:43:29.917Z,45.00
2019-01-31T09:44:29.911Z,50.62
2019-01-31T09:45:29.949Z,50.62
2019-01-31T09:46:29.893Z,50.62
2019-01-31T09:47:31.724Z,50.62
2019-01-31T09:48:29.913Z,45.00
2019-01-31T09:49:29.868Z,50.62
2019-01-31T09:50:29.918Z,50.62
2019-01-31T09:51:29.861Z,56.25
2019-01-31T09:52:29.827Z,56.25
2019-01-31T09:53:29.812Z,61.88
2019-01-31T09:54:29.833Z,61.88
2019-01-31T09:55:29.797Z,61.88
2019-01-31T09:56:29.803Z,67.50
2019-01-31T09:57:29.809Z,73.12
2019-01-31T09:58:29.762Z,84.38
2019-01-31T09:59:29.755Z,90.00
2019-01-31T10:00:29.740Z,90.00
2019-01-31T10:01:29.790Z,90.00
2019-01-31T10:02:29.735Z,95.62
2019-01-31T10:03:29.709Z,101.25
2019-01-31T10:04:29.762Z,118.12
2019-01-31T10:05:29.733Z,118.12
2019-01-31T10:06:29.701Z,106.88
2019-01-31T10:07:29.704Z,101.25
2019-01-31T10:08:29.672Z,101.25
2019-01-31T10:09:29.657Z,95.62
2019-01-31T10:10:29.694Z,90.00
2019-01-31T10:11:29.626Z,90.00
2019-01-31T10:12:37.781Z,84.38
2019-01-31T10:13:30.604Z,84.38
2019-01-31T10:14:29.623Z,78.75
2019-01-31T10:15:29.674Z,73.12
2019-01-31T10:16:29.583Z,73.12
2019-01-31T10:17:29.590Z,73.12
2019-01-31T10:18:29.595Z,73.12
2019-01-31T10:19:29.635Z,73.12
2019-01-31T10:20:29.555Z,73.12
2019-01-31T10:21:29.678Z,67.50
2019-01-31T10:22:29.509Z,61.88
2019-01-31T10:23:29.612Z,56.25
2019-01-31T10:24:29.614Z,56.25
2019-01-31T10:25:29.497Z,50.62
2019-01-31T10:26:29.482Z,45.00
2019-01-31T10:27:29.465Z,39.38
2019-01-31T10:28:29.502Z,39.38
2019-01-31T10:29:29.460Z,33.75
2019-01-31T10:30:29.461Z,33.75
2019-01-31T10:31:29.449Z,33.75
2019-01-31T10:32:29.403Z,33.75
2019-01-31T10:33:29.388Z,39.38
2019-01-31T10:34:29.403Z,39.38
2019-01-31T10:35:29.511Z,39.38
2019-01-31T10:36:29.402Z,33.75
2019-01-31T10:37:29.355Z,33.75
2019-01-31T10:38:29.336Z,33.75
2019-01-31T10:39:29.346Z,33.75
2019-01-31T10:40:29.354Z,33.75
2019-01-31T10:43:04.069Z,39.38
2019-01-31T10:44:04.293Z,39.38
2019-01-31T10:45:04.033Z,39.38
2019-01-31T10:46:04.012Z,45.00
2019-01-31T10:47:03.981Z,50.62
2019-01-31T10:48:04.019Z,56.25
2019-01-31T10:49:04.012Z,67.50
2019-01-31T10:50:04.025Z,73.12
2019-01-31T10:51:03.949Z,84.38
2019-01-31T10:52:03.938Z,90.00
2019-01-31T10:53:03.923Z,90.00
2019-01-31T10:54:03.912Z,90.00
2019-01-31T10:55:03.928Z,95.62
2019-01-31T10:56:03.887Z,95.62
2019-01-31T10:57:03.962Z,95.62
2019-01-31T10:58:03.900Z,95.62
2019-01-31T10:59:03.895Z,95.62
2019-01-31T11:00:03.848Z,95.62
2019-01-31T11:01:03.870Z,95.62
2019-01-31T11:02:03.831Z,95.62
2019-01-31T11:03:03.845Z,95.62
2019-01-31T11:04:03.944Z,101.25
2019-01-31T11:05:03.816Z,95.62
2019-01-31T11:06:03.809Z,95.62
2019-01-31T11:07:03.784Z,95.62
2019-01-31T11:08:03.794Z,101.25
2019-01-31T11:09:03.750Z,101.25
2019-01-31T11:10:03.739Z,101.25
2019-01-31T11:11:03.758Z,101.25
2019-01-31T11:12:03.753Z,101.25
2019-01-31T11:13:03.711Z,95.62
2019-01-31T11:14:03.820Z,84.38
2019-01-31T11:15:03.692Z,78.75
2019-01-31T11:16:03.695Z,84.38
2019-01-31T11:17:03.675Z,90.00
2019-01-31T11:18:03.687Z,84.38
2019-01-31T11:19:12.117Z,78.75
2019-01-31T11:20:04.752Z,73.12
2019-01-31T11:21:03.659Z,67.50
2019-01-31T11:22:03.632Z,67.50
2019-01-31T11:23:03.606Z,73.12
2019-01-31T11:24:12.764Z,78.75
2019-01-31T11:25:03.612Z,84.38
2019-01-31T11:26:03.709Z,90.00
2019-01-31T11:27:03.636Z,90.00
2019-01-31T11:28:11.848Z,90.00
2019-01-31T11:29:03.546Z,90.00
2019-01-31T11:30:03.551Z,90.00
2019-01-31T11:31:03.621Z,95.62
2019-01-31T11:32:03.535Z,101.25
2019-01-31T11:33:03.502Z,101.25
2019-01-31T11:34:03.499Z,101.25
2019-01-31T11:35:03.486Z,101.25
2019-01-31T11:36:03.516Z,101.25
2019-01-31T11:37:03.502Z,106.88
2019-01-31T11:38:03.475Z,101.25
2019-01-31T11:39:03.484Z,106.88
2019-01-31T11:40:03.443Z,112.50
2019-01-31T11:41:03.415Z,118.12
2019-01-31T11:42:03.438Z,123.75
2019-01-31T11:43:11.488Z,135.00
2019-01-31T11:44:04.455Z,135.00
2019-01-31T11:45:03.378Z,129.38
2019-01-31T11:46:03.372Z,129.38
2019-01-31T11:47:03.363Z,129.38
2019-01-31T11:48:03.376Z,123.75
2019-01-31T11:49:03.376Z,118.12
2019-01-31T11:50:03.343Z,112.50
2019-01-31T11:51:03.353Z,106.88
2019-01-31T11:52:13.291Z,106.88
2019-01-31T11:53:03.319Z,106.88
2019-01-31T11:54:03.288Z,106.88
2019-01-31T11:55:03.281Z,106.88
2019-01-31T11:56:03.329Z,106.88
2019-01-31T11:57:05.435Z,106.88
2019-01-31T11:58:03.245Z,112.50
2019-01-31T11:59:03.633Z,106.88
2019-01-31T12:00:03.219Z,101.25
2019-01-31T12:01:11.808Z,90.00
2019-01-31T12:02:03.229Z,84.38
2019-01-31T12:03:03.218Z,84.38
2019-01-31T12:04:03.196Z,78.75
2019-01-31T12:05:03.194Z,78.75
2019-01-31T12:06:03.162Z,78.75
2019-01-31T12:07:03.161Z,78.75
2019-01-31T12:08:03.166Z,84.38
2019-01-31T12:09:03.157Z,84.38
2019-01-31T12:10:03.156Z,84.38
2019-01-31T12:11:03.101Z,78.75
2019-01-31T12:12:03.198Z,73.12
2019-01-31T12:13:03.084Z,67.50
2019-01-31T12:14:03.078Z,67.50
2019-01-31T12:15:03.099Z,61.88
2019-01-31T12:16:03.049Z,61.88
2019-01-31T12:17:03.043Z,56.25
2019-01-31T12:18:10.634Z,56.25
2019-01-31T12:19:03.045Z,50.62
2019-01-31T12:20:03.040Z,50.62
2019-01-31T12:21:03.039Z,50.62
2019-01-31T12:22:03.006Z,50.62
2019-01-31T12:23:02.980Z,50.62
2019-01-31T12:24:02.998Z,50.62
2019-01-31T12:25:02.951Z,50.62
2019-01-31T12:26:02.964Z,50.62
2019-01-31T12:27:02.952Z,50.62
2019-01-31T12:28:02.930Z,50.62
2019-01-31T12:29:11.539Z,50.62
2019-01-31T12:30:02.908Z,45.00
2019-01-31T12:31:02.942Z,45.00
2019-01-31T12:32:02.900Z,45.00
2019-01-31T12:33:02.868Z,45.00
2019-01-31T12:34:10.565Z,45.00
2019-01-31T12:35:02.853Z,45.00
2019-01-31T12:36:02.864Z,45.00
2019-01-31T12:37:02.857Z,45.00
2019-01-31T12:38:02.828Z,45.00
2019-01-31T12:39:02.804Z,45.00
2019-01-31T12:40:02.796Z,39.38
2019-01-31T12:41:02.802Z,39.38
2019-01-31T12:42:02.799Z,45.00
2019-01-31T12:43:02.792Z,45.00
2019-01-31T12:44:02.749Z,45.00
2019-01-31T12:45:02.740Z,45.00
2019-01-31T12:46:02.729Z,45.00
2019-01-31T12:47:02.771Z,45.00
2019-01-31T12:48:02.713Z,45.00
2019-01-31T12:49:02.723Z,45.00
2019-01-31T12:50:02.722Z,45.00
2019-01-31T12:51:02.723Z,39.38
2019-01-31T12:52:04.353Z,39.38
2019-01-31T12:53:02.670Z,39.38
2019-01-31T12:54:02.729Z,39.38
2019-01-31T12:55:02.634Z,33.75
2019-01-31T12:56:02.630Z,33.75
2019-01-31T12:57:02.693Z,33.75
2019-01-31T12:58:10.217Z,28.12
2019-01-31T12:59:02.654Z,28.12
2019-01-31T13:00:02.580Z,28.12
2019-01-31T13:01:02.578Z,33.75
2019-01-31T13:02:02.628Z,33.75
2019-01-31T13:03:02.980Z,33.75
2019-01-31T13:04:10.131Z,39.38
2019-01-31T13:05:02.715Z,39.38
2019-01-31T13:06:02.517Z,39.38
2019-01-31T13:07:02.513Z,39.38
2019-01-31T13:08:02.527Z,45.00
2019-01-31T13:09:02.523Z,45.00
2019-01-31T13:10:02.477Z,50.62
2019-01-31T13:11:02.469Z,50.62
2019-01-31T13:12:02.455Z,56.25
2019-01-31T13:13:02.472Z,61.88
2019-01-31T13:14:02.459Z,67.50
2019-01-31T13:15:02.457Z,73.12